sensor_id;sensor_type;location;lat;lon;timestamp;pressure;altitude;pressure_sealevel;temperature;humidity
12475;BME280;6302;42.624;23.334;2023-04-02T00:01:33;92401.72;;;8.34;89.17
12475;BME280;6302;42.624;23.334;2023-04-02T00:04:10;92400.16;;;8.37;89.99
12475;BME280;6302;42.624;23.334;2023-04-02T00:06:39;92404.59;;;8.43;88.37
12475;BME280;6302;42.624;23.334;2023-04-02T00:09:24;92420.00;;;8.48;88.03
12475;BME280;6302;42.624;23.334;2023-04-02T00:11:52;92413.56;;;8.49;88.55
12475;BME280;6302;42.624;23.334;2023-04-02T00:14:26;92412.13;;;8.45;89.95
12475;BME280;6302;42.624;23.334;2023-04-02T00:16:54;92416.19;;;8.49;90.47
12475;BME280;6302;42.624;23.334;2023-04-02T00:19:26;92426.69;;;8.57;88.74
12475;BME280;6302;42.624;23.334;2023-04-02T00:21:56;92417.03;;;8.46;89.11
12475;BME280;6302;42.624;23.334;2023-04-02T00:24:23;92401.75;;;8.58;85.91
12475;BME280;6302;42.624;23.334;2023-04-02T00:26:51;92399.06;;;8.61;85.40
12475;BME280;6302;42.624;23.334;2023-04-02T00:29:18;92396.38;;;8.65;83.43
12475;BME280;6302;42.624;23.334;2023-04-02T00:31:48;92384.31;;;8.64;85.29
12475;BME280;6302;42.624;23.334;2023-04-02T00:34:19;92377.88;;;8.65;86.78
12475;BME280;6302;42.624;23.334;2023-04-02T00:36:47;92382.13;;;8.59;85.75
12475;BME280;6302;42.624;23.334;2023-04-02T00:39:18;92372.38;;;8.56;86.07
12475;BME280;6302;42.624;23.334;2023-04-02T00:41:47;92385.13;;;8.61;82.50
12475;BME280;6302;42.624;23.334;2023-04-02T00:44:19;92371.56;;;8.59;83.52
12475;BME280;6302;42.624;23.334;2023-04-02T00:46:49;92367.75;;;8.60;81.60
12475;BME280;6302;42.624;23.334;2023-04-02T00:49:22;92375.25;;;8.65;81.10
12475;BME280;6302;42.624;23.334;2023-04-02T00:51:52;92380.41;;;8.72;83.95
12475;BME280;6302;42.624;23.334;2023-04-02T00:54:24;92383.56;;;8.63;86.94
12475;BME280;6302;42.624;23.334;2023-04-02T00:56:54;92383.03;;;8.48;87.59
12475;BME280;6302;42.624;23.334;2023-04-02T00:59:26;92366.47;;;8.44;87.85
12475;BME280;6302;42.624;23.334;2023-04-02T01:01:57;92381.97;;;8.42;87.29
12475;BME280;6302;42.624;23.334;2023-04-02T01:04:29;92379.66;;;8.48;85.60
12475;BME280;6302;42.624;23.334;2023-04-02T01:07:00;92378.91;;;8.47;86.42
12475;BME280;6302;42.624;23.334;2023-04-02T01:09:42;92385.78;;;8.41;86.29
12475;BME280;6302;42.624;23.334;2023-04-02T01:12:25;92372.41;;;8.52;85.77
12475;BME280;6302;42.624;23.334;2023-04-02T01:15:04;92382.28;;;8.48;85.67
12475;BME280;6302;42.624;23.334;2023-04-02T01:17:46;92370.97;;;8.47;86.64
12475;BME280;6302;42.624;23.334;2023-04-02T01:20:37;92367.19;;;8.48;86.20
12475;BME280;6302;42.624;23.334;2023-04-02T01:23:12;92395.19;;;8.42;86.87
12475;BME280;6302;42.624;23.334;2023-04-02T01:25:45;92384.50;;;8.49;86.04
12475;BME280;6302;42.624;23.334;2023-04-02T01:28:17;92398.81;;;8.52;86.16
12475;BME280;6302;42.624;23.334;2023-04-02T01:30:50;92396.16;;;8.52;85.89
12475;BME280;6302;42.624;23.334;2023-04-02T01:33:20;92407.91;;;8.51;85.70
12475;BME280;6302;42.624;23.334;2023-04-02T01:35:51;92403.38;;;8.52;87.06
12475;BME280;6302;42.624;23.334;2023-04-02T01:38:25;92399.13;;;8.58;87.17
12475;BME280;6302;42.624;23.334;2023-04-02T01:40:57;92394.63;;;8.55;87.14
12475;BME280;6302;42.624;23.334;2023-04-02T01:43:31;92384.59;;;8.46;86.39
12475;BME280;6302;42.624;23.334;2023-04-02T01:46:10;92392.81;;;8.52;86.49
12475;BME280;6302;42.624;23.334;2023-04-02T01:48:49;92330.03;;;8.09;86.69
12475;BME280;6302;42.624;23.334;2023-04-02T01:51:25;92395.78;;;8.54;86.55
12475;BME280;6302;42.624;23.334;2023-04-02T01:53:52;92384.50;;;8.49;86.34
12475;BME280;6302;42.624;23.334;2023-04-02T01:56:19;92391.97;;;8.55;86.38
12475;BME280;6302;42.624;23.334;2023-04-02T01:58:48;92391.97;;;8.55;86.45
12475;BME280;6302;42.624;23.334;2023-04-02T02:01:18;92384.44;;;8.57;86.89
12475;BME280;6302;42.624;23.334;2023-04-02T02:03:46;92387.34;;;8.62;86.68
12475;BME280;6302;42.624;23.334;2023-04-02T02:06:15;92385.97;;;8.54;87.18
12475;BME280;6302;42.624;23.334;2023-04-02T02:08:46;92380.69;;;8.54;86.52
12475;BME280;6302;42.624;23.334;2023-04-02T02:11:15;92387.34;;;8.62;86.48
12475;BME280;6302;42.624;23.334;2023-04-02T02:13:45;92399.78;;;8.62;85.79
12475;BME280;6302;42.624;23.334;2023-04-02T02:16:16;92399.34;;;8.67;85.15
12475;BME280;6302;42.624;23.334;2023-04-02T02:18:46;92396.38;;;8.65;86.31
12475;BME280;6302;42.624;23.334;2023-04-02T02:21:22;92403.50;;;8.68;85.91
12475;BME280;6302;42.624;23.334;2023-04-02T02:23:52;92402.06;;;8.63;85.34
12475;BME280;6302;42.624;23.334;2023-04-02T02:26:21;92405.44;;;8.64;86.08
12475;BME280;6302;42.624;23.334;2023-04-02T02:28:53;92402.91;;;8.57;86.23
12475;BME280;6302;42.624;23.334;2023-04-02T02:31:26;92407.72;;;8.62;84.88
12475;BME280;6302;42.624;23.334;2023-04-02T02:33:57;92405.34;;;8.71;85.36
12475;BME280;6302;42.624;23.334;2023-04-02T02:36:29;92398.72;;;8.59;85.13
12475;BME280;6302;42.624;23.334;2023-04-02T02:39:01;92386.56;;;8.65;84.94
12475;BME280;6302;42.624;23.334;2023-04-02T02:41:32;92386.25;;;8.60;86.55
12475;BME280;6302;42.624;23.334;2023-04-02T02:44:04;92379.44;;;8.62;85.31
12475;BME280;6302;42.624;23.334;2023-04-02T02:46:34;92389.41;;;8.51;85.73
12475;BME280;6302;42.624;23.334;2023-04-02T02:49:03;92389.53;;;8.44;86.61
12475;BME280;6302;42.624;23.334;2023-04-02T02:51:39;92384.19;;;8.47;85.16
12475;BME280;6302;42.624;23.334;2023-04-02T02:54:07;92383.78;;;8.49;85.67
12475;BME280;6302;42.624;23.334;2023-04-02T02:56:37;92391.63;;;8.52;84.61
12475;BME280;6302;42.624;23.334;2023-04-02T02:59:08;92390.97;;;8.48;85.91
12475;BME280;6302;42.624;23.334;2023-04-02T03:01:38;92393.84;;;8.58;84.06
12475;BME280;6302;42.624;23.334;2023-04-02T03:04:05;92389.22;;;8.62;84.24
12475;BME280;6302;42.624;23.334;2023-04-02T03:06:32;92394.94;;;8.60;83.77
12475;BME280;6302;42.624;23.334;2023-04-02T03:09:03;92391.19;;;8.58;83.10
12475;BME280;6302;42.624;23.334;2023-04-02T03:11:36;92393.16;;;8.54;84.42
12475;BME280;6302;42.624;23.334;2023-04-02T03:14:15;92393.94;;;8.50;84.24
12475;BME280;6302;42.624;23.334;2023-04-02T03:16:48;92389.75;;;8.53;84.25
12475;BME280;6302;42.624;23.334;2023-04-02T03:19:24;92397.25;;;8.55;84.55
12475;BME280;6302;42.624;23.334;2023-04-02T03:21:56;92403.72;;;8.54;85.17
12475;BME280;6302;42.624;23.334;2023-04-02T03:24:31;92398.53;;;8.46;85.90
12475;BME280;6302;42.624;23.334;2023-04-02T03:27:03;92400.81;;;8.44;85.86
12475;BME280;6302;42.624;23.334;2023-04-02T03:29:34;92409.34;;;8.56;86.04
12475;BME280;6302;42.624;23.334;2023-04-02T03:32:06;92408.81;;;8.64;85.60
12475;BME280;6302;42.624;23.334;2023-04-02T03:34:40;92409.34;;;8.56;85.92
12475;BME280;6302;42.624;23.334;2023-04-02T03:37:13;92403.94;;;8.63;86.65
12475;BME280;6302;42.624;23.334;2023-04-02T03:39:42;92420.00;;;8.48;93.03
12475;BME280;6302;42.624;23.334;2023-04-02T03:42:14;92416.72;;;8.11;91.97
12475;BME280;6302;42.624;23.334;2023-04-02T03:44:45;92417.78;;;8.17;90.44
12475;BME280;6302;42.624;23.334;2023-04-02T03:47:19;92419.56;;;8.23;90.07
12475;BME280;6302;42.624;23.334;2023-04-02T03:49:54;92419.16;;;8.28;89.98
12475;BME280;6302;42.624;23.334;2023-04-02T03:52:24;92410.47;;;8.28;88.57
12475;BME280;6302;42.624;23.334;2023-04-02T03:54:53;92420.66;;;8.29;89.00
12475;BME280;6302;42.624;23.334;2023-04-02T03:57:24;92419.91;;;8.25;90.48
12475;BME280;6302;42.624;23.334;2023-04-02T03:59:58;92421.22;;;8.10;95.06
12475;BME280;6302;42.624;23.334;2023-04-02T04:02:38;92409.09;;;7.86;98.71
12475;BME280;6302;42.624;23.334;2023-04-02T04:05:18;92405.22;;;7.64;98.99
12475;BME280;6302;42.624;23.334;2023-04-02T04:07:50;92411.75;;;7.86;96.15
12475;BME280;6302;42.624;23.334;2023-04-02T04:10:21;92417.78;;;7.86;95.46
12475;BME280;6302;42.624;23.334;2023-04-02T04:12:50;92411.63;;;7.97;93.73
12475;BME280;6302;42.624;23.334;2023-04-02T04:15:21;92413.84;;;7.98;92.02
12475;BME280;6302;42.624;23.334;2023-04-02T04:17:53;92415.34;;;7.99;91.65
12475;BME280;6302;42.624;23.334;2023-04-02T04:20:30;92424.47;;;7.95;91.25
12475;BME280;6302;42.624;23.334;2023-04-02T04:23:16;92414.63;;;7.95;91.65
12475;BME280;6302;42.624;23.334;2023-04-02T04:25:44;92433.38;;;8.04;91.38
12475;BME280;6302;42.624;23.334;2023-04-02T04:28:25;92429.50;;;8.12;90.25
12475;BME280;6302;42.624;23.334;2023-04-02T04:30:57;92430.31;;;8.09;90.75
12475;BME280;6302;42.624;23.334;2023-04-02T04:33:30;92428.84;;;8.05;90.70
12475;BME280;6302;42.624;23.334;2023-04-02T04:36:05;92444.28;;;8.06;95.04
12475;BME280;6302;42.624;23.334;2023-04-02T04:38:47;92453.25;;;7.78;100.00
12475;BME280;6302;42.624;23.334;2023-04-02T04:41:22;92448.41;;;7.40;100.00
12475;BME280;6302;42.624;23.334;2023-04-02T04:43:53;92448.47;;;7.33;100.00
12475;BME280;6302;42.624;23.334;2023-04-02T04:46:25;92415.59;;;7.07;100.00
12475;BME280;6302;42.624;23.334;2023-04-02T04:48:59;92443.28;;;7.26;100.00
12475;BME280;6302;42.624;23.334;2023-04-02T04:51:30;92443.97;;;7.30;100.00
12475;BME280;6302;42.624;23.334;2023-04-02T04:53:59;92443.97;;;7.30;100.00
12475;BME280;6302;42.624;23.334;2023-04-02T04:56:28;92449.25;;;7.30;100.00
12475;BME280;6302;42.624;23.334;2023-04-02T04:58:59;92437.59;;;7.31;100.00
12475;BME280;6302;42.624;23.334;2023-04-02T05:01:32;92450.75;;;7.31;100.00
12475;BME280;6302;42.624;23.334;2023-04-02T05:04:10;92447.44;;;7.23;100.00
12475;BME280;6302;42.624;23.334;2023-04-02T05:06:41;92435.81;;;7.17;100.00
12475;BME280;6302;42.624;23.334;2023-04-02T05:09:17;92445.03;;;6.98;100.00
12475;BME280;6302;42.624;23.334;2023-04-02T05:11:51;92441.28;;;6.96;100.00
12475;BME280;6302;42.624;23.334;2023-04-02T05:14:22;92440.34;;;7.16;100.00
12475;BME280;6302;42.624;23.334;2023-04-02T05:16:57;92438.06;;;7.18;100.00
12475;BME280;6302;42.624;23.334;2023-04-02T05:19:33;92439.91;;;7.21;100.00
12475;BME280;6302;42.624;23.334;2023-04-02T05:22:08;92451.53;;;7.28;100.00
12475;BME280;6302;42.624;23.334;2023-04-02T05:24:44;92464.66;;;7.35;100.00
12475;BME280;6302;42.624;23.334;2023-04-02T05:27:22;92460.44;;;7.41;100.00
12475;BME280;6302;42.624;23.334;2023-04-02T05:29:57;92459.31;;;7.42;100.00
12475;BME280;6302;42.624;23.334;2023-04-02T05:32:29;92448.31;;;7.50;100.00
12475;BME280;6302;42.624;23.334;2023-04-02T05:34:58;92455.38;;;7.57;100.00
12475;BME280;6302;42.624;23.334;2023-04-02T05:37:30;92463.22;;;7.64;100.00
12475;BME280;6302;42.624;23.334;2023-04-02T05:39:58;92457.53;;;7.65;100.00
12475;BME280;6302;42.624;23.334;2023-04-02T05:42:28;92485.66;;;7.79;100.00
12475;BME280;6302;42.624;23.334;2023-04-02T05:45:05;92469.19;;;7.68;100.00
12475;BME280;6302;42.624;23.334;2023-04-02T05:47:35;92471.66;;;7.48;100.00
12475;BME280;6302;42.624;23.334;2023-04-02T05:50:23;92471.91;;;7.61;100.00
12475;BME280;6302;42.624;23.334;2023-04-02T05:52:58;92457.25;;;7.60;100.00
12475;BME280;6302;42.624;23.334;2023-04-02T05:55:32;92478.84;;;7.85;100.00
12475;BME280;6302;42.624;23.334;2023-04-02T05:58:03;92472.88;;;8.11;100.00
12475;BME280;6302;42.624;23.334;2023-04-02T06:00:47;92488.47;;;8.32;100.00
12475;BME280;6302;42.624;23.334;2023-04-02T06:03:22;92490.31;;;8.35;100.00
12475;BME280;6302;42.624;23.334;2023-04-02T06:05:55;92492.50;;;8.40;100.00
12475;BME280;6302;42.624;23.334;2023-04-02T06:08:26;92494.38;;;8.43;100.00
12475;BME280;6302;42.624;23.334;2023-04-02T06:10:59;92493.31;;;8.37;100.00
12475;BME280;6302;42.624;23.334;2023-04-02T06:13:27;92497.97;;;8.57;100.00
12475;BME280;6302;42.624;23.334;2023-04-02T06:15:54;92505.91;;;8.83;100.00
12475;BME280;6302;42.624;23.334;2023-04-02T06:18:22;92498.22;;;8.92;100.00
12475;BME280;6302;42.624;23.334;2023-04-02T06:20:50;92490.25;;;8.96;100.00
12475;BME280;6302;42.624;23.334;2023-04-02T06:23:21;92493.28;;;8.94;100.00
12475;BME280;6302;42.624;23.334;2023-04-02T06:25:54;92493.13;;;9.05;100.00
12475;BME280;6302;42.624;23.334;2023-04-02T06:28:26;92484.28;;;9.15;100.00
12475;BME280;6302;42.624;23.334;2023-04-02T06:30:57;92486.13;;;9.18;100.00
12475;BME280;6302;42.624;23.334;2023-04-02T06:33:26;92492.78;;;9.26;100.00
12475;BME280;6302;42.624;23.334;2023-04-02T06:35:53;92492.09;;;9.22;100.00
12475;BME280;6302;42.624;23.334;2023-04-02T06:38:25;92502.00;;;9.18;100.00
12475;BME280;6302;42.624;23.334;2023-04-02T06:40:56;92494.88;;;9.15;100.00
12475;BME280;6302;42.624;23.334;2023-04-02T06:43:26;92489.41;;;9.26;100.00
12475;BME280;6302;42.624;23.334;2023-04-02T06:45:58;92491.94;;;9.33;100.00
12475;BME280;6302;42.624;23.334;2023-04-02T06:48:28;92505.59;;;9.51;100.00
12475;BME280;6302;42.624;23.334;2023-04-02T06:50:58;92499.06;;;9.59;100.00
12475;BME280;6302;42.624;23.334;2023-04-02T06:53:33;92494.50;;;9.59;100.00
12475;BME280;6302;42.624;23.334;2023-04-02T06:56:03;92498.63;;;9.83;100.00
12475;BME280;6302;42.624;23.334;2023-04-02T06:58:31;92514.50;;;9.83;100.00
12475;BME280;6302;42.624;23.334;2023-04-02T07:00:58;92511.19;;;9.99;99.67
12475;BME280;6302;42.624;23.334;2023-04-02T07:03:27;92521.03;;;9.99;97.95
12475;BME280;6302;42.624;23.334;2023-04-02T07:05:55;92513.25;;;10.11;99.63
12475;BME280;6302;42.624;23.334;2023-04-02T07:08:22;92520.78;;;10.13;98.99
12475;BME280;6302;42.624;23.334;2023-04-02T07:10:51;92520.84;;;10.09;97.33
12475;BME280;6302;42.624;23.334;2023-04-02T07:13:19;92510.97;;;10.13;99.73
12475;BME280;6302;42.624;23.334;2023-04-02T07:15:48;92533.69;;;10.30;95.73
12475;BME280;6302;42.624;23.334;2023-04-02T07:18:23;92521.97;;;10.31;94.41
12475;BME280;6302;42.624;23.334;2023-04-02T07:20:51;92524.28;;;10.29;95.18
12475;BME280;6302;42.624;23.334;2023-04-02T07:23:18;92535.41;;;10.40;93.91
12475;BME280;6302;42.624;23.334;2023-04-02T07:25:46;92535.88;;;10.55;90.89
12475;BME280;6302;42.624;23.334;2023-04-02T07:28:14;92545.34;;;10.72;83.36
12475;BME280;6302;42.624;23.334;2023-04-02T07:30:42;92540.59;;;10.83;79.75
12475;BME280;6302;42.624;23.334;2023-04-02T07:33:12;92548.69;;;10.76;90.12
12475;BME280;6302;42.624;23.334;2023-04-02T07:35:39;92547.38;;;10.84;82.87
12475;BME280;6302;42.624;23.334;2023-04-02T07:38:06;92547.25;;;11.07;87.73
12475;BME280;6302;42.624;23.334;2023-04-02T07:40:33;92551.09;;;11.23;78.51
12475;BME280;6302;42.624;23.334;2023-04-02T07:43:00;92560.38;;;11.31;77.40
12475;BME280;6302;42.624;23.334;2023-04-02T07:45:28;92555.91;;;11.44;77.60
12475;BME280;6302;42.624;23.334;2023-04-02T07:47:55;92555.84;;;11.47;75.15
12475;BME280;6302;42.624;23.334;2023-04-02T07:50:22;92549.63;;;11.54;75.63
12475;BME280;6302;42.624;23.334;2023-04-02T07:52:49;92550.84;;;11.65;75.36
12475;BME280;6302;42.624;23.334;2023-04-02T07:55:16;92549.97;;;11.72;75.39
12475;BME280;6302;42.624;23.334;2023-04-02T07:57:47;92545.06;;;11.70;73.57
12475;BME280;6302;42.624;23.334;2023-04-02T08:00:15;92551.13;;;11.71;72.48
12475;BME280;6302;42.624;23.334;2023-04-02T08:02:43;92551.44;;;11.73;72.71
12475;BME280;6302;42.624;23.334;2023-04-02T08:05:10;92555.38;;;11.85;72.61
12475;BME280;6302;42.624;23.334;2023-04-02T08:07:37;92560.06;;;11.93;68.99
12475;BME280;6302;42.624;23.334;2023-04-02T08:10:05;92557.00;;;11.95;68.05
12475;BME280;6302;42.624;23.334;2023-04-02T08:12:32;92552.81;;;12.10;71.16
12475;BME280;6302;42.624;23.334;2023-04-02T08:14:59;92562.06;;;12.34;69.56
12475;BME280;6302;42.624;23.334;2023-04-02T08:17:26;92563.88;;;12.37;68.98
12475;BME280;6302;42.624;23.334;2023-04-02T08:19:57;92569.56;;;12.52;69.58
12475;BME280;6302;42.624;23.334;2023-04-02T08:22:25;92555.41;;;12.55;64.94
12475;BME280;6302;42.624;23.334;2023-04-02T08:24:52;92557.91;;;12.74;68.62
12475;BME280;6302;42.624;23.334;2023-04-02T08:27:19;92554.66;;;12.83;67.91
12475;BME280;6302;42.624;23.334;2023-04-02T08:29:46;92562.97;;;12.97;66.95
12475;BME280;6302;42.624;23.334;2023-04-02T08:32:13;92562.44;;;13.02;66.63
12475;BME280;6302;42.624;23.334;2023-04-02T08:34:41;92562.50;;;13.15;66.95
12475;BME280;6302;42.624;23.334;2023-04-02T08:37:10;92563.91;;;12.91;65.83
12475;BME280;6302;42.624;23.334;2023-04-02T08:39:38;92566.47;;;12.94;67.02
12475;BME280;6302;42.624;23.334;2023-04-02T08:42:16;92575.13;;;13.11;65.39
12475;BME280;6302;42.624;23.334;2023-04-02T08:44:50;92568.13;;;13.17;67.57
12475;BME280;6302;42.624;23.334;2023-04-02T08:47:20;92563.84;;;13.07;66.46
12475;BME280;6302;42.624;23.334;2023-04-02T08:49:53;92566.63;;;13.41;67.30
12475;BME280;6302;42.624;23.334;2023-04-02T08:52:25;92567.47;;;13.63;62.77
12475;BME280;6302;42.624;23.334;2023-04-02T08:54:53;92557.34;;;13.71;63.00
12475;BME280;6302;42.624;23.334;2023-04-02T08:57:27;92563.81;;;13.83;62.61
12475;BME280;6302;42.624;23.334;2023-04-02T09:00:03;92548.22;;;13.59;60.46
12475;BME280;6302;42.624;23.334;2023-04-02T09:02:36;92557.25;;;13.75;57.90
12475;BME280;6302;42.624;23.334;2023-04-02T09:05:08;92562.59;;;13.62;56.73
12475;BME280;6302;42.624;23.334;2023-04-02T09:07:42;92558.31;;;13.77;56.80
12475;BME280;6302;42.624;23.334;2023-04-02T09:10:13;92548.88;;;13.98;57.40
12475;BME280;6302;42.624;23.334;2023-04-02T09:12:42;92556.38;;;14.24;55.27
12475;BME280;6302;42.624;23.334;2023-04-02T09:15:16;92544.16;;;14.49;56.76
12475;BME280;6302;42.624;23.334;2023-04-02T09:17:52;92551.94;;;14.65;55.61
12475;BME280;6302;42.624;23.334;2023-04-02T09:20:24;92552.81;;;14.40;56.80
12475;BME280;6302;42.624;23.334;2023-04-02T09:22:54;92565.84;;;14.25;57.21
12475;BME280;6302;42.624;23.334;2023-04-02T09:25:22;92561.88;;;13.96;54.15
12475;BME280;6302;42.624;23.334;2023-04-02T09:27:53;92555.31;;;14.22;56.73
12475;BME280;6302;42.624;23.334;2023-04-02T09:30:28;92533.25;;;14.21;53.01
12475;BME280;6302;42.624;23.334;2023-04-02T09:33:00;92547.38;;;14.65;53.30
12475;BME280;6302;42.624;23.334;2023-04-02T09:35:33;92544.59;;;14.99;55.82
12475;BME280;6302;42.624;23.334;2023-04-02T09:38:16;92546.28;;;14.84;52.51
12475;BME280;6302;42.624;23.334;2023-04-02T09:40:46;92541.47;;;14.49;53.88
12475;BME280;6302;42.624;23.334;2023-04-02T09:43:16;92535.94;;;14.65;54.35
12475;BME280;6302;42.624;23.334;2023-04-02T09:45:44;92541.03;;;14.93;52.75
12475;BME280;6302;42.624;23.334;2023-04-02T09:48:25;92538.81;;;14.70;53.50
12475;BME280;6302;42.624;23.334;2023-04-02T09:51:12;92529.31;;;14.69;56.11
12475;BME280;6302;42.624;23.334;2023-04-02T09:53:43;92532.31;;;14.71;55.12
12475;BME280;6302;42.624;23.334;2023-04-02T09:56:13;92529.22;;;14.17;54.72
12475;BME280;6302;42.624;23.334;2023-04-02T09:58:41;92524.66;;;14.05;55.50
12475;BME280;6302;42.624;23.334;2023-04-02T10:01:26;92535.56;;;13.98;52.93
12475;BME280;6302;42.624;23.334;2023-04-02T10:03:54;92533.13;;;13.91;50.97
12475;BME280;6302;42.624;23.334;2023-04-02T10:06:24;92531.53;;;13.81;50.96
12475;BME280;6302;42.624;23.334;2023-04-02T10:08:54;92501.44;;;13.71;54.37
12475;BME280;6302;42.624;23.334;2023-04-02T10:11:26;92525.56;;;13.89;54.63
12475;BME280;6302;42.624;23.334;2023-04-02T10:13:56;92517.09;;;14.03;54.99
12475;BME280;6302;42.624;23.334;2023-04-02T10:16:26;92534.16;;;14.06;53.30
12475;BME280;6302;42.624;23.334;2023-04-02T10:18:59;92517.19;;;14.12;53.94
12475;BME280;6302;42.624;23.334;2023-04-02T10:21:28;92506.94;;;14.45;54.21
12475;BME280;6302;42.624;23.334;2023-04-02T10:23:58;92506.00;;;14.61;52.80
12475;BME280;6302;42.624;23.334;2023-04-02T10:26:51;92516.91;;;14.75;52.93
12475;BME280;6302;42.624;23.334;2023-04-02T10:29:54;92512.66;;;14.87;51.65
12475;BME280;6302;42.624;23.334;2023-04-02T10:32:30;92515.94;;;15.22;50.94
12475;BME280;6302;42.624;23.334;2023-04-02T10:35:01;92516.50;;;15.08;51.07
12475;BME280;6302;42.624;23.334;2023-04-02T10:37:47;92517.41;;;14.83;51.67
12475;BME280;6302;42.624;23.334;2023-04-02T10:40:23;92509.63;;;14.97;53.46
12475;BME280;6302;42.624;23.334;2023-04-02T10:43:22;92521.50;;;15.36;51.21
12475;BME280;6302;42.624;23.334;2023-04-02T10:46:06;92512.97;;;15.20;49.48
12475;BME280;6302;42.624;23.334;2023-04-02T10:48:44;92516.47;;;14.98;51.21
12475;BME280;6302;42.624;23.334;2023-04-02T10:51:24;92514.16;;;15.19;52.99
12475;BME280;6302;42.624;23.334;2023-04-02T10:54:01;92497.03;;;14.98;52.13
12475;BME280;6302;42.624;23.334;2023-04-02T10:56:31;92503.91;;;14.86;53.25
12475;BME280;6302;42.624;23.334;2023-04-02T10:59:02;92506.13;;;15.10;53.00
12475;BME280;6302;42.624;23.334;2023-04-02T11:01:35;92502.31;;;15.29;48.66
12475;BME280;6302;42.624;23.334;2023-04-02T11:04:09;92502.41;;;15.07;47.92
12475;BME280;6302;42.624;23.334;2023-04-02T11:06:42;92496.94;;;15.11;55.90
12475;BME280;6302;42.624;23.334;2023-04-02T11:09:14;92497.44;;;14.96;56.96
12475;BME280;6302;42.624;23.334;2023-04-02T11:11:47;92494.53;;;14.73;55.92
12475;BME280;6302;42.624;23.334;2023-04-02T11:14:21;92503.84;;;14.68;58.37
12475;BME280;6302;42.624;23.334;2023-04-02T11:16:50;92499.00;;;14.54;58.69
12475;BME280;6302;42.624;23.334;2023-04-02T11:19:23;92504.66;;;14.56;58.15
12475;BME280;6302;42.624;23.334;2023-04-02T11:21:51;92493.72;;;14.63;59.45
12475;BME280;6302;42.624;23.334;2023-04-02T11:24:25;92504.47;;;14.81;56.76
12475;BME280;6302;42.624;23.334;2023-04-02T11:27:05;92509.22;;;15.08;57.64
12475;BME280;6302;42.624;23.334;2023-04-02T11:29:34;92498.72;;;14.83;58.97
12475;BME280;6302;42.624;23.334;2023-04-02T11:32:27;92498.59;;;14.86;59.15
12475;BME280;6302;42.624;23.334;2023-04-02T11:35:22;92491.50;;;14.92;57.87
12475;BME280;6302;42.624;23.334;2023-04-02T11:37:51;92488.28;;;14.97;58.67
12475;BME280;6302;42.624;23.334;2023-04-02T11:40:40;92499.69;;;14.98;58.19
12475;BME280;6302;42.624;23.334;2023-04-02T11:43:48;92481.16;;;14.94;57.72
12475;BME280;6302;42.624;23.334;2023-04-02T11:46:41;92483.78;;;14.85;57.56
12475;BME280;6302;42.624;23.334;2023-04-02T11:49:32;92490.81;;;14.70;57.78
12475;BME280;6302;42.624;23.334;2023-04-02T11:52:00;92495.47;;;14.57;57.72
12475;BME280;6302;42.624;23.334;2023-04-02T11:54:29;92493.06;;;14.50;58.90
12475;BME280;6302;42.624;23.334;2023-04-02T11:57:02;92490.69;;;14.52;58.66
12475;BME280;6302;42.624;23.334;2023-04-02T11:59:39;92481.53;;;14.53;58.08
12475;BME280;6302;42.624;23.334;2023-04-02T12:02:15;92483.63;;;14.58;57.75
12475;BME280;6302;42.624;23.334;2023-04-02T12:04:58;92486.06;;;14.74;57.73
12475;BME280;6302;42.624;23.334;2023-04-02T12:07:48;92483.31;;;14.87;56.93
12475;BME280;6302;42.624;23.334;2023-04-02T12:10:21;92492.03;;;14.78;57.96
12475;BME280;6302;42.624;23.334;2023-04-02T12:12:49;92472.31;;;14.76;60.13
12475;BME280;6302;42.624;23.334;2023-04-02T12:15:43;92474.81;;;14.70;55.83
12475;BME280;6302;42.624;23.334;2023-04-02T12:18:14;92475.28;;;14.78;57.11
12475;BME280;6302;42.624;23.334;2023-04-02T12:20:46;92469.34;;;14.74;55.80
12475;BME280;6302;42.624;23.334;2023-04-02T12:23:19;92471.41;;;15.01;56.61
12475;BME280;6302;42.624;23.334;2023-04-02T12:25:54;92471.53;;;15.06;56.73
12475;BME280;6302;42.624;23.334;2023-04-02T12:28:23;92483.81;;;14.94;58.90
12475;BME280;6302;42.624;23.334;2023-04-02T12:31:01;92474.63;;;14.95;56.95
12475;BME280;6302;42.624;23.334;2023-04-02T12:33:31;92474.97;;;15.07;56.34
12475;BME280;6302;42.624;23.334;2023-04-02T12:36:03;92481.97;;;15.13;56.57
12475;BME280;6302;42.624;23.334;2023-04-02T12:38:32;92485.31;;;14.95;55.21
12475;BME280;6302;42.624;23.334;2023-04-02T12:41:01;92468.47;;;14.77;56.42
12475;BME280;6302;42.624;23.334;2023-04-02T12:43:29;92471.56;;;14.75;57.09
12475;BME280;6302;42.624;23.334;2023-04-02T12:46:00;92473.44;;;14.66;56.45
12475;BME280;6302;42.624;23.334;2023-04-02T12:48:28;92458.06;;;14.70;57.64
12475;BME280;6302;42.624;23.334;2023-04-02T12:50:56;92475.09;;;14.72;57.22
12475;BME280;6302;42.624;23.334;2023-04-02T12:53:25;92465.38;;;14.78;55.51
12475;BME280;6302;42.624;23.334;2023-04-02T12:55:54;92463.53;;;14.97;55.12
12475;BME280;6302;42.624;23.334;2023-04-02T12:58:29;92457.22;;;15.22;54.98
12475;BME280;6302;42.624;23.334;2023-04-02T13:01:13;92458.22;;;15.46;54.65
12475;BME280;6302;42.624;23.334;2023-04-02T13:03:42;92459.09;;;15.43;53.59
12475;BME280;6302;42.624;23.334;2023-04-02T13:06:20;92441.66;;;15.20;53.31
12475;BME280;6302;42.624;23.334;2023-04-02T13:08:48;92456.38;;;15.34;52.72
12475;BME280;6302;42.624;23.334;2023-04-02T13:11:16;92455.56;;;15.55;53.98
12475;BME280;6302;42.624;23.334;2023-04-02T13:13:44;92453.38;;;15.81;51.28
12475;BME280;6302;42.624;23.334;2023-04-02T13:16:28;92453.19;;;15.66;49.92
12475;BME280;6302;42.624;23.334;2023-04-02T13:19:28;92450.81;;;15.59;50.00
12475;BME280;6302;42.624;23.334;2023-04-02T13:21:57;92454.41;;;15.65;51.08
12475;BME280;6302;42.624;23.334;2023-04-02T13:24:25;92452.91;;;15.64;51.50
12475;BME280;6302;42.624;23.334;2023-04-02T13:26:54;92459.00;;;15.74;49.96
12475;BME280;6302;42.624;23.334;2023-04-02T13:29:24;92458.53;;;15.75;50.57
12475;BME280;6302;42.624;23.334;2023-04-02T13:31:55;92456.75;;;15.45;50.50
12475;BME280;6302;42.624;23.334;2023-04-02T13:34:22;92456.66;;;15.27;51.18